createdAt,value
2022-09-14T00:03:23.701Z,49.96
2022-09-14T00:08:16.127Z,49.94
2022-09-14T00:13:08.680Z,49.96
2022-09-14T00:18:01.318Z,49.97
2022-09-14T00:22:54.001Z,50.1
2022-09-14T00:27:46.627Z,50.06
2022-09-14T00:32:39.431Z,50.06
2022-09-14T00:37:32.048Z,50.03
2022-09-14T00:42:24.693Z,50.07
2022-09-14T00:47:17.278Z,50.03
2022-09-14T00:52:10.126Z,50.02
2022-09-14T00:57:02.721Z,50.11
2022-09-14T01:01:55.573Z,50.03
2022-09-14T01:06:48.077Z,50.03
2022-09-14T01:11:40.970Z,50.03
2022-09-14T01:16:33.562Z,50.09
2022-09-14T01:21:26.013Z,50.18
2022-09-14T01:26:18.740Z,50.14
2022-09-14T01:31:11.728Z,50.16
2022-09-14T01:36:04.215Z,50.09
2022-09-14T01:40:57.025Z,50.19
2022-09-14T01:45:49.922Z,50.1
2022-09-14T01:50:42.222Z,50.13
2022-09-14T01:55:34.965Z,50.18
2022-09-14T02:00:27.623Z,50.04
2022-09-14T02:05:20.318Z,50.05
2022-09-14T02:10:13.041Z,50.06
2022-09-14T02:15:05.416Z,50.1
2022-09-14T02:19:57.909Z,50.17
2022-09-14T02:24:50.335Z,50.17
2022-09-14T02:29:43.126Z,50.17
2022-09-14T02:34:35.587Z,50.17
2022-09-14T02:39:28.019Z,50.25
2022-09-14T02:44:20.569Z,50.49
2022-09-14T02:49:13.407Z,50.33
2022-09-14T02:54:06.171Z,50.21
2022-09-14T02:58:58.932Z,50.29
2022-09-14T03:03:51.639Z,50.39
2022-09-14T03:08:44.357Z,50.4
2022-09-14T03:13:37.036Z,50.35
2022-09-14T03:18:29.587Z,50.37
2022-09-14T03:23:22.227Z,50.52
2022-09-14T03:28:15.201Z,50.37
2022-09-14T03:33:07.713Z,50.58
2022-09-14T03:38:00.238Z,50.5
2022-09-14T03:42:53.078Z,50.38
2022-09-14T03:47:45.366Z,50.46
2022-09-14T03:52:37.926Z,50.5
2022-09-14T03:57:30.064Z,50.65
2022-09-14T04:02:22.668Z,50.64
2022-09-14T04:07:15.308Z,50.61
2022-09-14T04:12:08.070Z,50.54
2022-09-14T04:17:00.689Z,50.56
2022-09-14T04:21:53.131Z,51.54
2022-09-14T04:26:45.902Z,51.59
2022-09-14T04:31:44.158Z,51.14
2022-09-14T04:36:35.733Z,51.68
2022-09-14T04:41:28.169Z,51.35
2022-09-14T04:46:21.136Z,51.3
2022-09-14T04:51:13.724Z,51.08
2022-09-14T04:56:06.568Z,53.5
2022-09-14T05:00:53.599Z,51.53
2022-09-14T05:05:47.021Z,51.07
2022-09-14T05:10:40.612Z,50.98
2022-09-14T05:15:33.278Z,51.07
2022-09-14T05:20:26.157Z,52.63
2022-09-14T05:25:18.820Z,50.63
2022-09-14T05:30:11.412Z,50.79
2022-09-14T05:35:04.100Z,51.32
2022-09-14T05:39:56.742Z,50.43
2022-09-14T05:44:49.517Z,50.43
2022-09-14T05:49:42.355Z,51.38
2022-09-14T05:54:35.186Z,50.83
2022-09-14T05:59:28.021Z,50.79
2022-09-14T06:04:15.071Z,50.59
2022-09-14T06:09:08.330Z,50.57
2022-09-14T06:14:02.327Z,50.92
2022-09-14T06:18:55.157Z,50.71
2022-09-14T06:23:48.074Z,50.64
2022-09-14T06:28:40.664Z,50.97
2022-09-14T06:33:33.617Z,50.5
2022-09-14T06:38:26.444Z,50.35
2022-09-14T06:43:19.312Z,50.43
2022-09-14T06:48:11.984Z,52.17
2022-09-14T06:53:04.744Z,50.8
2022-09-14T06:57:57.263Z,50.01
2022-09-14T07:02:53.616Z,50.36
2022-09-14T07:07:42.770Z,50.92
2022-09-14T07:12:35.646Z,50.81
2022-09-14T07:17:28.754Z,50.41
2022-09-14T07:22:21.373Z,51.13
2022-09-14T07:27:14.030Z,50.66
2022-09-14T07:32:06.570Z,50.79
2022-09-14T07:36:59.201Z,50.86
2022-09-14T07:41:51.889Z,49.84
2022-09-14T07:46:44.367Z,49.87
2022-09-14T07:51:36.937Z,49.81
2022-09-14T07:56:24.760Z,49.7
2022-09-14T08:01:17.474Z,49.81
2022-09-14T08:06:11.060Z,49.93
2022-09-14T08:11:03.964Z,49.99
2022-09-14T08:15:56.701Z,50.08
2022-09-14T08:20:49.501Z,50.21
2022-09-14T08:25:42.087Z,50.27
2022-09-14T08:30:34.834Z,50.41
2022-09-14T08:35:40.975Z,50.56
2022-09-14T08:40:19.859Z,50.58
2022-09-14T08:45:12.406Z,50.74
2022-09-14T08:50:00.320Z,50.94
2022-09-14T08:54:52.646Z,50.94
2022-09-14T08:59:46.440Z,51.09
2022-09-14T09:04:39.201Z,51.15
2022-09-14T09:09:31.892Z,50.94
2022-09-14T09:14:24.671Z,50.93
2022-09-14T09:19:17.445Z,50.97
2022-09-14T09:24:10.092Z,51.07
2022-09-14T09:29:02.851Z,51.05
2022-09-14T09:33:55.371Z,50.95
2022-09-14T09:38:43.194Z,51.07
2022-09-14T09:43:49.173Z,51.16
2022-09-14T09:48:29.843Z,51.25
2022-09-14T09:53:22.499Z,51.25
2022-09-14T09:58:15.235Z,51.21
2022-09-14T10:03:07.986Z,51.43
2022-09-14T10:08:00.670Z,51.58
2022-09-14T10:12:53.213Z,51.71
2022-09-14T10:17:45.784Z,51.74
2022-09-14T10:22:38.489Z,51.72
2022-09-14T10:27:34.361Z,51.72
2022-09-14T10:32:23.886Z,51.71
2022-09-14T10:37:16.654Z,51.65
2022-09-14T10:42:09.350Z,51.76
2022-09-14T10:47:04.648Z,51.7
2022-09-14T10:51:54.815Z,51.66
2022-09-14T10:56:47.674Z,51.66
2022-09-14T11:01:34.671Z,51.74
2022-09-14T11:06:27.845Z,51.7
2022-09-14T11:11:21.508Z,51.69
2022-09-14T11:16:14.291Z,51.73
2022-09-14T11:21:06.777Z,51.74
2022-09-14T11:25:59.489Z,51.73
2022-09-14T11:30:52.137Z,51.74
2022-09-14T11:35:44.777Z,51.65
2022-09-14T11:40:37.445Z,51.71
2022-09-14T11:45:29.782Z,51.67
2022-09-14T11:50:22.704Z,51.67
2022-09-14T11:55:15.518Z,51.7
2022-09-14T12:00:08.197Z,51.75
2022-09-14T12:05:00.881Z,51.67
2022-09-14T12:09:53.683Z,51.62
2022-09-14T12:14:46.404Z,51.56
2022-09-14T12:19:38.801Z,51.67
2022-09-14T12:24:31.438Z,51.51
2022-09-14T12:29:24.124Z,51.68
2022-09-14T12:34:16.771Z,51.53
2022-09-14T12:39:09.404Z,51.57
2022-09-14T12:44:02.055Z,51.7
2022-09-14T12:48:54.697Z,51.81
2022-09-14T12:53:47.462Z,51.77
2022-09-14T12:58:40.250Z,51.77
2022-09-14T13:03:32.979Z,51.83
2022-09-14T13:08:25.589Z,51.83
2022-09-14T13:13:18.356Z,51.72
2022-09-14T13:18:10.997Z,51.86
2022-09-14T13:23:03.683Z,51.8
2022-09-14T13:27:56.405Z,51.85
2022-09-14T13:32:49.166Z,51.79
2022-09-14T13:37:44.144Z,51.84
2022-09-14T13:42:34.438Z,51.86
2022-09-14T13:47:27.045Z,51.87
2022-09-14T13:52:19.830Z,51.89
2022-09-14T13:57:12.534Z,52.02
2022-09-14T14:02:05.365Z,52.08
2022-09-14T14:06:58.131Z,52.11
2022-09-14T14:11:50.699Z,52.18
2022-09-14T14:16:43.531Z,52.29
2022-09-14T14:21:36.188Z,52.22
2022-09-14T14:26:28.919Z,52.23
2022-09-14T14:31:21.712Z,52.25
2022-09-14T14:36:14.193Z,52.24
2022-09-14T14:41:06.859Z,52.32
2022-09-14T14:45:59.714Z,52.53
2022-09-14T14:50:52.224Z,52.38
2022-09-14T14:55:44.803Z,52.57
2022-09-14T15:00:37.700Z,52.5
2022-09-14T15:05:30.365Z,52.56
2022-09-14T15:10:23.233Z,52.59
2022-09-14T15:15:15.900Z,52.58
2022-09-14T15:20:08.530Z,52.73
2022-09-14T15:25:01.419Z,52.72
2022-09-14T15:29:54.343Z,52.49
2022-09-14T15:34:46.646Z,52.75
2022-09-14T15:39:39.251Z,52.64
2022-09-14T15:44:31.953Z,52.67
2022-09-14T15:49:24.821Z,52.77
2022-09-14T15:54:17.391Z,52.82
2022-09-14T15:59:10.027Z,52.82
2022-09-14T16:04:02.530Z,52.72
2022-09-14T16:08:55.381Z,52.52
2022-09-14T16:13:48.146Z,52.87
2022-09-14T16:18:40.652Z,52.99
2022-09-14T16:23:33.275Z,53.06
2022-09-14T16:28:26.127Z,52.93
2022-09-14T16:33:18.801Z,52.97
2022-09-14T16:38:11.574Z,53
2022-09-14T16:43:04.175Z,53
2022-09-14T16:47:56.924Z,52.86
2022-09-14T16:52:43.593Z,52.99
2022-09-14T16:57:36.753Z,52.88
2022-09-14T17:02:30.527Z,52.96
2022-09-14T17:07:22.919Z,53.06
2022-09-14T17:12:15.479Z,52.92
2022-09-14T17:17:08.305Z,52.99
2022-09-14T17:22:00.971Z,53.22
2022-09-14T17:26:53.515Z,53.19
2022-09-14T17:31:46.527Z,53
2022-09-14T17:36:39.240Z,52.89
2022-09-14T17:41:32.198Z,52.98
2022-09-14T17:46:25.222Z,53.8
2022-09-14T17:51:17.956Z,54.49
2022-09-14T17:56:10.734Z,55.04
2022-09-14T18:01:03.482Z,55.49
2022-09-14T18:05:55.851Z,55.58
2022-09-14T18:10:48.373Z,55.8
2022-09-14T18:15:40.991Z,55.68
2022-09-14T18:20:33.555Z,55.73
2022-09-14T18:25:26.019Z,55.58
2022-09-14T18:30:18.625Z,55.71
2022-09-14T18:35:11.312Z,55.38
2022-09-14T18:40:04.008Z,55.24
2022-09-14T18:44:57.329Z,55.35
2022-09-14T18:49:49.133Z,55.19
2022-09-14T18:54:42.718Z,54.92
2022-09-14T18:59:34.208Z,54.94
2022-09-14T19:04:26.934Z,54.85
2022-09-14T19:09:19.766Z,54.5
2022-09-14T19:14:13.183Z,54.85
2022-09-14T19:19:04.575Z,54.93
2022-09-14T19:23:57.265Z,54.68
2022-09-14T19:28:50.099Z,54.46
2022-09-14T19:33:45.435Z,54.35
2022-09-14T19:38:35.359Z,54.18
2022-09-14T19:43:28.052Z,54.16
2022-09-14T19:48:20.638Z,54.06
2022-09-14T19:53:13.176Z,53.92
2022-09-14T19:58:05.979Z,53.88
2022-09-14T20:02:58.620Z,53.8
2022-09-14T20:07:51.108Z,53.85
2022-09-14T20:12:43.707Z,53.74
2022-09-14T20:17:36.537Z,53.65
2022-09-14T20:22:29.431Z,53.67
2022-09-14T20:27:21.919Z,53.74
2022-09-14T20:32:17.295Z,53.71
2022-09-14T20:37:07.128Z,53.65
2022-09-14T20:41:59.929Z,53.61
2022-09-14T20:46:52.460Z,53.6
2022-09-14T20:51:45.076Z,53.59
2022-09-14T20:56:37.772Z,53.43
2022-09-14T21:01:30.391Z,53.49
2022-09-14T21:06:22.677Z,53.55
2022-09-14T21:11:15.274Z,53.52
2022-09-14T21:16:07.979Z,53.62
2022-09-14T21:21:02.868Z,53.5
2022-09-14T21:25:53.484Z,53.47
2022-09-14T21:30:46.119Z,53.42
2022-09-14T21:35:38.946Z,53.37
2022-09-14T21:40:31.447Z,53.41
2022-09-14T21:45:23.923Z,53.45
2022-09-14T21:50:16.190Z,53.47
2022-09-14T21:55:08.817Z,53.48
2022-09-14T22:00:01.383Z,53.35
2022-09-14T22:04:53.886Z,53.39
2022-09-14T22:09:46.590Z,53.37
2022-09-14T22:14:39.379Z,53.22
2022-09-14T22:19:31.947Z,53.18
2022-09-14T22:24:24.467Z,53.09
2022-09-14T22:29:17.092Z,53.12
2022-09-14T22:34:09.687Z,53.16
2022-09-14T22:39:02.387Z,53.13
2022-09-14T22:43:55.132Z,53.12
2022-09-14T22:48:47.614Z,53.13
2022-09-14T22:53:40.244Z,53.18
2022-09-14T22:58:32.886Z,53.16
2022-09-14T23:03:25.824Z,53.11
2022-09-14T23:08:18.550Z,53.14
2022-09-14T23:13:11.072Z,53.12
2022-09-14T23:18:03.732Z,53.04
2022-09-14T23:22:56.418Z,53.08
2022-09-14T23:27:49.066Z,53.09
2022-09-14T23:32:41.818Z,53
2022-09-14T23:37:34.777Z,53.08
2022-09-14T23:42:27.405Z,53.06
2022-09-14T23:47:20.163Z,53.02
2022-09-14T23:52:12.689Z,53.1
2022-09-14T23:57:05.258Z,53
